sensor_id;sensor_type;location;lat;lon;timestamp;P1;durP1;ratioP1;P2;durP2;ratioP2
50988;SDS011;37008;52.210;21.112;2022-07-29T00:02:13;12.55;;;7.00;;
50988;SDS011;37008;52.210;21.112;2022-07-29T00:04:39;10.05;;;5.50;;
50988;SDS011;37008;52.210;21.112;2022-07-29T00:07:05;13.07;;;5.85;;
50988;SDS011;37008;52.210;21.112;2022-07-29T00:09:31;11.50;;;6.32;;
50988;SDS011;37008;52.210;21.112;2022-07-29T00:11:57;9.93;;;5.75;;
50988;SDS011;37008;52.210;21.112;2022-07-29T00:14:24;12.82;;;5.88;;
50988;SDS011;37008;52.210;21.112;2022-07-29T00:16:51;10.38;;;6.05;;
50988;SDS011;37008;52.210;21.112;2022-07-29T00:19:16;10.50;;;5.75;;
50988;SDS011;37008;52.210;21.112;2022-07-29T00:21:42;9.27;;;5.70;;
50988;SDS011;37008;52.210;21.112;2022-07-29T00:24:08;9.43;;;5.90;;
50988;SDS011;37008;52.210;21.112;2022-07-29T00:26:33;10.82;;;6.00;;
50988;SDS011;37008;52.210;21.112;2022-07-29T00:28:59;9.75;;;5.80;;
50988;SDS011;37008;52.210;21.112;2022-07-29T00:31:26;8.68;;;5.30;;
50988;SDS011;37008;52.210;21.112;2022-07-29T00:33:52;11.57;;;5.30;;
50988;SDS011;37008;52.210;21.112;2022-07-29T00:36:18;11.70;;;5.13;;
50988;SDS011;37008;52.210;21.112;2022-07-29T00:38:45;10.70;;;5.30;;
50988;SDS011;37008;52.210;21.112;2022-07-29T00:41:12;6.95;;;5.38;;
50988;SDS011;37008;52.210;21.112;2022-07-29T00:43:37;7.82;;;5.43;;
50988;SDS011;37008;52.210;21.112;2022-07-29T00:46:03;10.82;;;5.00;;
50988;SDS011;37008;52.210;21.112;2022-07-29T00:48:28;8.55;;;5.60;;
50988;SDS011;37008;52.210;21.112;2022-07-29T00:50:54;8.60;;;5.40;;
50988;SDS011;37008;52.210;21.112;2022-07-29T00:53:23;7.78;;;5.00;;
50988;SDS011;37008;52.210;21.112;2022-07-29T00:55:49;9.63;;;4.97;;
50988;SDS011;37008;52.210;21.112;2022-07-29T00:58:15;8.27;;;4.95;;
50988;SDS011;37008;52.210;21.112;2022-07-29T01:00:41;9.32;;;5.57;;
50988;SDS011;37008;52.210;21.112;2022-07-29T01:03:07;11.20;;;5.57;;
50988;SDS011;37008;52.210;21.112;2022-07-29T01:05:33;8.68;;;5.32;;
50988;SDS011;37008;52.210;21.112;2022-07-29T01:07:59;10.77;;;5.70;;
50988;SDS011;37008;52.210;21.112;2022-07-29T01:10:26;6.55;;;4.88;;
50988;SDS011;37008;52.210;21.112;2022-07-29T01:12:54;9.27;;;4.35;;
50988;SDS011;37008;52.210;21.112;2022-07-29T01:15:22;8.40;;;4.80;;
50988;SDS011;37008;52.210;21.112;2022-07-29T01:20:39;10.48;;;5.10;;
50988;SDS011;37008;52.210;21.112;2022-07-29T01:28:52;10.40;;;5.22;;
50988;SDS011;37008;52.210;21.112;2022-07-29T01:31:35;9.05;;;4.80;;
50988;SDS011;37008;52.210;21.112;2022-07-29T01:34:04;12.48;;;5.38;;
50988;SDS011;37008;52.210;21.112;2022-07-29T01:36:33;5.90;;;4.25;;
50988;SDS011;37008;52.210;21.112;2022-07-29T01:42:12;7.68;;;4.30;;
50988;SDS011;37008;52.210;21.112;2022-07-29T01:47:47;7.45;;;4.60;;
50988;SDS011;37008;52.210;21.112;2022-07-29T01:50:17;6.28;;;4.78;;
50988;SDS011;37008;52.210;21.112;2022-07-29T01:55:24;13.80;;;5.05;;
50988;SDS011;37008;52.210;21.112;2022-07-29T01:57:53;7.75;;;4.43;;
50988;SDS011;37008;52.210;21.112;2022-07-29T02:00:21;6.15;;;3.90;;
50988;SDS011;37008;52.210;21.112;2022-07-29T02:02:47;9.50;;;4.32;;
50988;SDS011;37008;52.210;21.112;2022-07-29T02:05:15;10.75;;;5.15;;
50988;SDS011;37008;52.210;21.112;2022-07-29T02:07:44;8.98;;;4.35;;
50988;SDS011;37008;52.210;21.112;2022-07-29T02:10:13;8.65;;;4.57;;
50988;SDS011;37008;52.210;21.112;2022-07-29T02:12:42;7.80;;;4.47;;
50988;SDS011;37008;52.210;21.112;2022-07-29T02:15:09;8.68;;;4.57;;
50988;SDS011;37008;52.210;21.112;2022-07-29T02:17:39;8.93;;;4.93;;
50988;SDS011;37008;52.210;21.112;2022-07-29T02:20:13;9.32;;;5.40;;
50988;SDS011;37008;52.210;21.112;2022-07-29T02:22:40;7.93;;;5.00;;
50988;SDS011;37008;52.210;21.112;2022-07-29T02:25:09;13.98;;;5.13;;
50988;SDS011;37008;52.210;21.112;2022-07-29T02:27:35;8.90;;;4.70;;
50988;SDS011;37008;52.210;21.112;2022-07-29T02:30:04;10.23;;;4.80;;
50988;SDS011;37008;52.210;21.112;2022-07-29T02:32:32;11.13;;;4.68;;
50988;SDS011;37008;52.210;21.112;2022-07-29T02:35:00;9.88;;;4.70;;
50988;SDS011;37008;52.210;21.112;2022-07-29T02:37:27;10.80;;;4.40;;
50988;SDS011;37008;52.210;21.112;2022-07-29T02:39:54;9.40;;;5.50;;
50988;SDS011;37008;52.210;21.112;2022-07-29T02:42:21;9.45;;;4.65;;
50988;SDS011;37008;52.210;21.112;2022-07-29T02:44:48;9.05;;;4.65;;
50988;SDS011;37008;52.210;21.112;2022-07-29T02:50:09;9.55;;;5.13;;
50988;SDS011;37008;52.210;21.112;2022-07-29T02:52:47;7.47;;;4.55;;
50988;SDS011;37008;52.210;21.112;2022-07-29T02:55:25;10.03;;;4.97;;
50988;SDS011;37008;52.210;21.112;2022-07-29T02:57:59;11.18;;;4.70;;
50988;SDS011;37008;52.210;21.112;2022-07-29T03:00:28;7.93;;;4.72;;
50988;SDS011;37008;52.210;21.112;2022-07-29T03:02:58;8.15;;;4.70;;
50988;SDS011;37008;52.210;21.112;2022-07-29T03:05:26;7.07;;;4.43;;
50988;SDS011;37008;52.210;21.112;2022-07-29T03:07:54;8.65;;;5.57;;
50988;SDS011;37008;52.210;21.112;2022-07-29T03:10:22;8.65;;;4.70;;
50988;SDS011;37008;52.210;21.112;2022-07-29T03:12:50;5.28;;;4.47;;
50988;SDS011;37008;52.210;21.112;2022-07-29T03:15:16;11.98;;;4.88;;
50988;SDS011;37008;52.210;21.112;2022-07-29T03:17:42;9.77;;;4.82;;
50988;SDS011;37008;52.210;21.112;2022-07-29T03:20:09;8.93;;;4.40;;
50988;SDS011;37008;52.210;21.112;2022-07-29T03:22:41;7.43;;;4.65;;
50988;SDS011;37008;52.210;21.112;2022-07-29T03:25:11;7.78;;;4.72;;
50988;SDS011;37008;52.210;21.112;2022-07-29T03:27:37;6.88;;;4.35;;
50988;SDS011;37008;52.210;21.112;2022-07-29T03:30:03;13.23;;;4.97;;
50988;SDS011;37008;52.210;21.112;2022-07-29T03:32:30;8.25;;;5.07;;
50988;SDS011;37008;52.210;21.112;2022-07-29T03:34:55;8.75;;;5.03;;
50988;SDS011;37008;52.210;21.112;2022-07-29T03:37:21;7.65;;;4.40;;
50988;SDS011;37008;52.210;21.112;2022-07-29T03:39:47;7.32;;;4.45;;
50988;SDS011;37008;52.210;21.112;2022-07-29T03:42:14;6.60;;;3.75;;
50988;SDS011;37008;52.210;21.112;2022-07-29T03:44:41;5.50;;;3.65;;
50988;SDS011;37008;52.210;21.112;2022-07-29T03:47:10;6.93;;;4.07;;
50988;SDS011;37008;52.210;21.112;2022-07-29T03:49:38;5.57;;;3.17;;
50988;SDS011;37008;52.210;21.112;2022-07-29T03:52:05;4.38;;;2.75;;
50988;SDS011;37008;52.210;21.112;2022-07-29T03:54:32;6.28;;;2.50;;
50988;SDS011;37008;52.210;21.112;2022-07-29T03:56:58;5.57;;;2.90;;
50988;SDS011;37008;52.210;21.112;2022-07-29T03:59:26;6.43;;;3.00;;
50988;SDS011;37008;52.210;21.112;2022-07-29T04:01:52;6.07;;;3.10;;
50988;SDS011;37008;52.210;21.112;2022-07-29T04:04:20;6.72;;;3.10;;
50988;SDS011;37008;52.210;21.112;2022-07-29T04:06:46;7.15;;;3.63;;
50988;SDS011;37008;52.210;21.112;2022-07-29T04:09:12;6.47;;;2.85;;
50988;SDS011;37008;52.210;21.112;2022-07-29T04:11:39;4.70;;;2.67;;
50988;SDS011;37008;52.210;21.112;2022-07-29T04:14:06;5.47;;;2.70;;
50988;SDS011;37008;52.210;21.112;2022-07-29T04:16:31;9.43;;;3.45;;
50988;SDS011;37008;52.210;21.112;2022-07-29T04:18:57;8.45;;;3.20;;
50988;SDS011;37008;52.210;21.112;2022-07-29T04:21:23;8.30;;;3.55;;
50988;SDS011;37008;52.210;21.112;2022-07-29T04:23:49;8.82;;;4.32;;
50988;SDS011;37008;52.210;21.112;2022-07-29T04:26:18;5.28;;;3.67;;
50988;SDS011;37008;52.210;21.112;2022-07-29T04:28:45;7.07;;;2.83;;
50988;SDS011;37008;52.210;21.112;2022-07-29T04:31:11;7.85;;;2.80;;
50988;SDS011;37008;52.210;21.112;2022-07-29T04:33:38;9.23;;;3.15;;
50988;SDS011;37008;52.210;21.112;2022-07-29T04:36:04;8.00;;;3.15;;
50988;SDS011;37008;52.210;21.112;2022-07-29T04:38:30;4.85;;;2.67;;
50988;SDS011;37008;52.210;21.112;2022-07-29T04:40:55;6.53;;;2.80;;
50988;SDS011;37008;52.210;21.112;2022-07-29T04:43:21;8.00;;;3.95;;
50988;SDS011;37008;52.210;21.112;2022-07-29T04:45:46;7.43;;;1.90;;
50988;SDS011;37008;52.210;21.112;2022-07-29T04:48:12;6.15;;;2.60;;
50988;SDS011;37008;52.210;21.112;2022-07-29T04:50:38;5.13;;;2.45;;
50988;SDS011;37008;52.210;21.112;2022-07-29T04:53:04;4.47;;;2.40;;
50988;SDS011;37008;52.210;21.112;2022-07-29T04:55:30;5.80;;;2.33;;
50988;SDS011;37008;52.210;21.112;2022-07-29T04:57:56;5.35;;;2.25;;
50988;SDS011;37008;52.210;21.112;2022-07-29T05:00:21;4.10;;;2.20;;
50988;SDS011;37008;52.210;21.112;2022-07-29T05:02:48;4.22;;;2.00;;
50988;SDS011;37008;52.210;21.112;2022-07-29T05:05:14;6.45;;;1.95;;
50988;SDS011;37008;52.210;21.112;2022-07-29T05:07:39;3.65;;;1.50;;
50988;SDS011;37008;52.210;21.112;2022-07-29T05:10:05;6.88;;;1.70;;
50988;SDS011;37008;52.210;21.112;2022-07-29T05:12:31;5.47;;;1.83;;
50988;SDS011;37008;52.210;21.112;2022-07-29T05:14:57;5.80;;;2.45;;
50988;SDS011;37008;52.210;21.112;2022-07-29T05:17:22;4.38;;;1.75;;
50988;SDS011;37008;52.210;21.112;2022-07-29T05:19:48;5.70;;;1.95;;
50988;SDS011;37008;52.210;21.112;2022-07-29T05:22:16;3.38;;;1.70;;
50988;SDS011;37008;52.210;21.112;2022-07-29T05:24:43;2.80;;;1.70;;
50988;SDS011;37008;52.210;21.112;2022-07-29T05:27:08;5.22;;;1.80;;
50988;SDS011;37008;52.210;21.112;2022-07-29T05:29:34;5.68;;;1.70;;
50988;SDS011;37008;52.210;21.112;2022-07-29T05:32:00;4.90;;;1.58;;
50988;SDS011;37008;52.210;21.112;2022-07-29T05:34:25;4.57;;;1.30;;
50988;SDS011;37008;52.210;21.112;2022-07-29T05:36:51;4.32;;;1.52;;
50988;SDS011;37008;52.210;21.112;2022-07-29T05:39:17;4.22;;;1.60;;
50988;SDS011;37008;52.210;21.112;2022-07-29T05:41:42;7.07;;;1.55;;
50988;SDS011;37008;52.210;21.112;2022-07-29T05:44:08;2.90;;;1.48;;
50988;SDS011;37008;52.210;21.112;2022-07-29T05:46:33;2.25;;;1.30;;
50988;SDS011;37008;52.210;21.112;2022-07-29T05:48:59;5.57;;;1.30;;
50988;SDS011;37008;52.210;21.112;2022-07-29T05:51:25;4.15;;;1.55;;
50988;SDS011;37008;52.210;21.112;2022-07-29T05:53:51;3.28;;;1.42;;
50988;SDS011;37008;52.210;21.112;2022-07-29T05:56:16;3.08;;;1.08;;
50988;SDS011;37008;52.210;21.112;2022-07-29T05:58:42;2.28;;;1.27;;
50988;SDS011;37008;52.210;21.112;2022-07-29T06:01:08;5.78;;;1.40;;
50988;SDS011;37008;52.210;21.112;2022-07-29T06:03:34;2.15;;;1.10;;
50988;SDS011;37008;52.210;21.112;2022-07-29T06:05:59;2.45;;;1.05;;
50988;SDS011;37008;52.210;21.112;2022-07-29T06:08:25;3.72;;;1.25;;
50988;SDS011;37008;52.210;21.112;2022-07-29T06:10:51;4.15;;;1.15;;
50988;SDS011;37008;52.210;21.112;2022-07-29T06:13:16;2.35;;;1.10;;
50988;SDS011;37008;52.210;21.112;2022-07-29T06:15:42;2.60;;;0.80;;
50988;SDS011;37008;52.210;21.112;2022-07-29T06:18:08;2.03;;;1.00;;
50988;SDS011;37008;52.210;21.112;2022-07-29T06:20:34;2.85;;;0.98;;
50988;SDS011;37008;52.210;21.112;2022-07-29T06:23:00;3.40;;;1.08;;
50988;SDS011;37008;52.210;21.112;2022-07-29T06:25:29;3.08;;;0.80;;
50988;SDS011;37008;52.210;21.112;2022-07-29T06:27:55;2.45;;;1.00;;
50988;SDS011;37008;52.210;21.112;2022-07-29T06:30:21;3.10;;;0.90;;
50988;SDS011;37008;52.210;21.112;2022-07-29T06:32:46;5.28;;;1.30;;
50988;SDS011;37008;52.210;21.112;2022-07-29T06:35:13;2.78;;;1.00;;
50988;SDS011;37008;52.210;21.112;2022-07-29T06:37:38;8.68;;;1.13;;
50988;SDS011;37008;52.210;21.112;2022-07-29T06:40:04;5.03;;;1.10;;
50988;SDS011;37008;52.210;21.112;2022-07-29T06:42:48;2.80;;;0.95;;
50988;SDS011;37008;52.210;21.112;2022-07-29T06:45:14;4.07;;;1.13;;
50988;SDS011;37008;52.210;21.112;2022-07-29T06:47:41;3.90;;;0.88;;
50988;SDS011;37008;52.210;21.112;2022-07-29T06:50:06;2.95;;;0.90;;
50988;SDS011;37008;52.210;21.112;2022-07-29T06:52:36;1.85;;;0.70;;
50988;SDS011;37008;52.210;21.112;2022-07-29T06:55:02;3.72;;;1.20;;
50988;SDS011;37008;52.210;21.112;2022-07-29T06:57:28;5.93;;;1.20;;
50988;SDS011;37008;52.210;21.112;2022-07-29T06:59:55;3.05;;;0.88;;
50988;SDS011;37008;52.210;21.112;2022-07-29T07:02:22;3.08;;;1.20;;
50988;SDS011;37008;52.210;21.112;2022-07-29T07:04:47;3.45;;;0.80;;
50988;SDS011;37008;52.210;21.112;2022-07-29T07:07:13;3.38;;;1.00;;
50988;SDS011;37008;52.210;21.112;2022-07-29T07:09:38;3.70;;;0.80;;
50988;SDS011;37008;52.210;21.112;2022-07-29T07:12:04;4.43;;;1.00;;
50988;SDS011;37008;52.210;21.112;2022-07-29T07:14:31;4.18;;;0.88;;
50988;SDS011;37008;52.210;21.112;2022-07-29T07:16:56;2.00;;;1.30;;
50988;SDS011;37008;52.210;21.112;2022-07-29T07:19:22;4.05;;;1.08;;
50988;SDS011;37008;52.210;21.112;2022-07-29T07:21:48;4.35;;;0.90;;
50988;SDS011;37008;52.210;21.112;2022-07-29T07:24:13;4.03;;;0.75;;
50988;SDS011;37008;52.210;21.112;2022-07-29T07:26:39;1.80;;;0.77;;
50988;SDS011;37008;52.210;21.112;2022-07-29T07:29:05;5.03;;;1.25;;
50988;SDS011;37008;52.210;21.112;2022-07-29T07:31:30;4.75;;;1.23;;
50988;SDS011;37008;52.210;21.112;2022-07-29T07:33:56;4.70;;;1.10;;
50988;SDS011;37008;52.210;21.112;2022-07-29T07:36:22;3.53;;;1.00;;
50988;SDS011;37008;52.210;21.112;2022-07-29T07:38:48;3.80;;;1.08;;
50988;SDS011;37008;52.210;21.112;2022-07-29T07:41:14;7.75;;;1.20;;
50988;SDS011;37008;52.210;21.112;2022-07-29T07:43:39;3.20;;;1.00;;
50988;SDS011;37008;52.210;21.112;2022-07-29T07:46:05;2.67;;;0.70;;
50988;SDS011;37008;52.210;21.112;2022-07-29T07:48:31;4.88;;;1.58;;
50988;SDS011;37008;52.210;21.112;2022-07-29T07:50:56;3.67;;;1.10;;
50988;SDS011;37008;52.210;21.112;2022-07-29T07:53:22;4.88;;;1.10;;
50988;SDS011;37008;52.210;21.112;2022-07-29T07:55:48;1.85;;;0.90;;
50988;SDS011;37008;52.210;21.112;2022-07-29T07:58:13;6.45;;;0.88;;
50988;SDS011;37008;52.210;21.112;2022-07-29T08:00:39;6.60;;;1.15;;
50988;SDS011;37008;52.210;21.112;2022-07-29T08:03:05;3.42;;;0.90;;
50988;SDS011;37008;52.210;21.112;2022-07-29T08:05:30;3.72;;;1.08;;
50988;SDS011;37008;52.210;21.112;2022-07-29T08:07:56;1.45;;;0.70;;
50988;SDS011;37008;52.210;21.112;2022-07-29T08:10:21;6.60;;;1.05;;
50988;SDS011;37008;52.210;21.112;2022-07-29T08:13:16;3.60;;;1.02;;
50988;SDS011;37008;52.210;21.112;2022-07-29T08:15:42;3.72;;;0.98;;
50988;SDS011;37008;52.210;21.112;2022-07-29T08:18:10;3.97;;;1.05;;
50988;SDS011;37008;52.210;21.112;2022-07-29T08:20:36;4.30;;;1.15;;
50988;SDS011;37008;52.210;21.112;2022-07-29T08:23:03;2.45;;;0.93;;
50988;SDS011;37008;52.210;21.112;2022-07-29T08:25:31;6.28;;;1.10;;
50988;SDS011;37008;52.210;21.112;2022-07-29T08:27:58;3.30;;;0.98;;
50988;SDS011;37008;52.210;21.112;2022-07-29T08:30:24;3.17;;;1.75;;
50988;SDS011;37008;52.210;21.112;2022-07-29T08:32:50;4.10;;;1.38;;
50988;SDS011;37008;52.210;21.112;2022-07-29T08:35:18;3.85;;;1.08;;
50988;SDS011;37008;52.210;21.112;2022-07-29T08:37:44;2.42;;;0.90;;
50988;SDS011;37008;52.210;21.112;2022-07-29T08:40:10;4.22;;;1.23;;
50988;SDS011;37008;52.210;21.112;2022-07-29T08:42:36;3.08;;;1.33;;
50988;SDS011;37008;52.210;21.112;2022-07-29T08:45:03;5.68;;;1.27;;
50988;SDS011;37008;52.210;21.112;2022-07-29T08:47:29;5.10;;;1.13;;
50988;SDS011;37008;52.210;21.112;2022-07-29T08:49:55;7.18;;;1.30;;
50988;SDS011;37008;52.210;21.112;2022-07-29T08:52:21;10.63;;;1.10;;
50988;SDS011;37008;52.210;21.112;2022-07-29T08:54:49;9.10;;;3.67;;
50988;SDS011;37008;52.210;21.112;2022-07-29T08:57:17;6.75;;;4.13;;
50988;SDS011;37008;52.210;21.112;2022-07-29T08:59:43;4.60;;;1.15;;
50988;SDS011;37008;52.210;21.112;2022-07-29T09:02:12;2.42;;;1.30;;
50988;SDS011;37008;52.210;21.112;2022-07-29T09:04:45;5.85;;;0.93;;
50988;SDS011;37008;52.210;21.112;2022-07-29T09:07:14;5.32;;;0.90;;
50988;SDS011;37008;52.210;21.112;2022-07-29T09:09:40;7.07;;;1.05;;
50988;SDS011;37008;52.210;21.112;2022-07-29T09:12:07;3.88;;;1.20;;
50988;SDS011;37008;52.210;21.112;2022-07-29T09:14:36;3.70;;;1.00;;
50988;SDS011;37008;52.210;21.112;2022-07-29T09:17:02;35.03;;;2.22;;
50988;SDS011;37008;52.210;21.112;2022-07-29T09:19:31;6.30;;;1.10;;
50988;SDS011;37008;52.210;21.112;2022-07-29T09:22:00;3.42;;;1.10;;
50988;SDS011;37008;52.210;21.112;2022-07-29T09:27:07;1.52;;;0.77;;
50988;SDS011;37008;52.210;21.112;2022-07-29T09:29:34;4.00;;;0.90;;
50988;SDS011;37008;52.210;21.112;2022-07-29T09:32:02;2.00;;;0.80;;
50988;SDS011;37008;52.210;21.112;2022-07-29T09:34:32;1.88;;;0.80;;
50988;SDS011;37008;52.210;21.112;2022-07-29T09:36:58;4.63;;;1.15;;
50988;SDS011;37008;52.210;21.112;2022-07-29T09:39:34;4.82;;;1.20;;
50988;SDS011;37008;52.210;21.112;2022-07-29T09:42:05;3.17;;;0.98;;
50988;SDS011;37008;52.210;21.112;2022-07-29T09:44:47;4.05;;;0.80;;
50988;SDS011;37008;52.210;21.112;2022-07-29T09:47:15;1.92;;;0.85;;
50988;SDS011;37008;52.210;21.112;2022-07-29T09:49:56;3.78;;;1.08;;
50988;SDS011;37008;52.210;21.112;2022-07-29T09:52:23;3.50;;;0.90;;
50988;SDS011;37008;52.210;21.112;2022-07-29T09:54:49;3.55;;;0.93;;
50988;SDS011;37008;52.210;21.112;2022-07-29T09:57:25;4.32;;;1.05;;
50988;SDS011;37008;52.210;21.112;2022-07-29T10:00:03;1.80;;;0.85;;
50988;SDS011;37008;52.210;21.112;2022-07-29T10:02:35;2.45;;;0.98;;
50988;SDS011;37008;52.210;21.112;2022-07-29T10:05:03;4.72;;;1.38;;
50988;SDS011;37008;52.210;21.112;2022-07-29T10:07:50;3.00;;;0.95;;
50988;SDS011;37008;52.210;21.112;2022-07-29T10:12:51;5.53;;;0.95;;
50988;SDS011;37008;52.210;21.112;2022-07-29T10:15:18;4.88;;;1.00;;
50988;SDS011;37008;52.210;21.112;2022-07-29T10:17:45;2.40;;;0.90;;
50988;SDS011;37008;52.210;21.112;2022-07-29T10:20:12;2.65;;;0.82;;
50988;SDS011;37008;52.210;21.112;2022-07-29T10:22:40;3.53;;;0.75;;
50988;SDS011;37008;52.210;21.112;2022-07-29T10:25:06;6.05;;;1.10;;
50988;SDS011;37008;52.210;21.112;2022-07-29T10:27:32;7.18;;;4.28;;
50988;SDS011;37008;52.210;21.112;2022-07-29T10:30:00;9.35;;;6.07;;
50988;SDS011;37008;52.210;21.112;2022-07-29T10:43:21;2.13;;;0.90;;
50988;SDS011;37008;52.210;21.112;2022-07-29T10:45:54;4.03;;;0.90;;
50988;SDS011;37008;52.210;21.112;2022-07-29T10:48:22;4.57;;;0.90;;
50988;SDS011;37008;52.210;21.112;2022-07-29T10:56:25;4.30;;;1.05;;
50988;SDS011;37008;52.210;21.112;2022-07-29T11:01:43;5.88;;;0.68;;
50988;SDS011;37008;52.210;21.112;2022-07-29T11:04:09;2.67;;;0.80;;
50988;SDS011;37008;52.210;21.112;2022-07-29T11:09:25;4.47;;;1.08;;
50988;SDS011;37008;52.210;21.112;2022-07-29T11:11:51;4.28;;;0.95;;
50988;SDS011;37008;52.210;21.112;2022-07-29T11:14:18;5.03;;;1.05;;
50988;SDS011;37008;52.210;21.112;2022-07-29T11:17:04;2.97;;;0.90;;
50988;SDS011;37008;52.210;21.112;2022-07-29T11:19:30;3.20;;;0.85;;
50988;SDS011;37008;52.210;21.112;2022-07-29T11:21:56;7.13;;;1.02;;
50988;SDS011;37008;52.210;21.112;2022-07-29T11:24:23;2.55;;;0.75;;
50988;SDS011;37008;52.210;21.112;2022-07-29T11:29:31;5.45;;;0.90;;
50988;SDS011;37008;52.210;21.112;2022-07-29T11:32:08;2.60;;;0.98;;
50988;SDS011;37008;52.210;21.112;2022-07-29T11:34:35;6.38;;;1.10;;
50988;SDS011;37008;52.210;21.112;2022-07-29T11:39:44;1.75;;;0.85;;
50988;SDS011;37008;52.210;21.112;2022-07-29T11:45:06;10.65;;;1.00;;
50988;SDS011;37008;52.210;21.112;2022-07-29T11:47:38;5.47;;;0.93;;
50988;SDS011;37008;52.210;21.112;2022-07-29T11:50:07;5.57;;;0.90;;
50988;SDS011;37008;52.210;21.112;2022-07-29T11:52:38;3.65;;;0.82;;
50988;SDS011;37008;52.210;21.112;2022-07-29T11:57:37;3.30;;;0.90;;
50988;SDS011;37008;52.210;21.112;2022-07-29T12:00:11;11.07;;;1.77;;
50988;SDS011;37008;52.210;21.112;2022-07-29T12:02:41;3.35;;;0.90;;
50988;SDS011;37008;52.210;21.112;2022-07-29T12:05:08;2.55;;;0.70;;
50988;SDS011;37008;52.210;21.112;2022-07-29T12:07:36;2.72;;;1.00;;
50988;SDS011;37008;52.210;21.112;2022-07-29T12:10:02;3.22;;;0.85;;
50988;SDS011;37008;52.210;21.112;2022-07-29T12:12:29;1.98;;;0.90;;
50988;SDS011;37008;52.210;21.112;2022-07-29T12:14:55;5.85;;;0.90;;
50988;SDS011;37008;52.210;21.112;2022-07-29T12:17:33;3.38;;;0.73;;
50988;SDS011;37008;52.210;21.112;2022-07-29T12:20:03;5.57;;;0.77;;
50988;SDS011;37008;52.210;21.112;2022-07-29T12:22:33;5.57;;;0.80;;
50988;SDS011;37008;52.210;21.112;2022-07-29T12:25:06;3.65;;;0.80;;
50988;SDS011;37008;52.210;21.112;2022-07-29T12:27:34;2.47;;;0.90;;
50988;SDS011;37008;52.210;21.112;2022-07-29T12:30:07;3.20;;;0.85;;
50988;SDS011;37008;52.210;21.112;2022-07-29T12:35:03;3.28;;;0.80;;
50988;SDS011;37008;52.210;21.112;2022-07-29T12:37:34;4.30;;;0.77;;
50988;SDS011;37008;52.210;21.112;2022-07-29T12:40:02;3.50;;;0.93;;
50988;SDS011;37008;52.210;21.112;2022-07-29T12:42:29;5.22;;;1.02;;
50988;SDS011;37008;52.210;21.112;2022-07-29T12:44:54;16.27;;;1.05;;
50988;SDS011;37008;52.210;21.112;2022-07-29T12:47:20;3.80;;;1.00;;
50988;SDS011;37008;52.210;21.112;2022-07-29T12:49:47;3.05;;;0.90;;
50988;SDS011;37008;52.210;21.112;2022-07-29T12:52:22;7.63;;;1.27;;
50988;SDS011;37008;52.210;21.112;2022-07-29T12:54:56;2.58;;;0.90;;
50988;SDS011;37008;52.210;21.112;2022-07-29T12:57:22;4.78;;;0.70;;
50988;SDS011;37008;52.210;21.112;2022-07-29T13:00:03;2.67;;;1.00;;
50988;SDS011;37008;52.210;21.112;2022-07-29T13:02:35;3.80;;;0.93;;
50988;SDS011;37008;52.210;21.112;2022-07-29T13:05:01;2.80;;;0.80;;
50988;SDS011;37008;52.210;21.112;2022-07-29T13:07:29;3.85;;;0.80;;
50988;SDS011;37008;52.210;21.112;2022-07-29T13:10:10;4.45;;;0.90;;
50988;SDS011;37008;52.210;21.112;2022-07-29T13:12:37;10.98;;;1.27;;
50988;SDS011;37008;52.210;21.112;2022-07-29T13:15:13;1.63;;;0.70;;
50988;SDS011;37008;52.210;21.112;2022-07-29T13:17:40;3.13;;;0.80;;
50988;SDS011;37008;52.210;21.112;2022-07-29T13:20:08;2.28;;;0.88;;
50988;SDS011;37008;52.210;21.112;2022-07-29T13:22:37;8.10;;;0.93;;
50988;SDS011;37008;52.210;21.112;2022-07-29T13:25:03;3.60;;;0.90;;
50988;SDS011;37008;52.210;21.112;2022-07-29T13:27:32;3.70;;;1.00;;
50988;SDS011;37008;52.210;21.112;2022-07-29T13:30:03;2.28;;;0.70;;
50988;SDS011;37008;52.210;21.112;2022-07-29T13:32:31;8.50;;;1.08;;
50988;SDS011;37008;52.210;21.112;2022-07-29T13:34:59;1.45;;;0.63;;
50988;SDS011;37008;52.210;21.112;2022-07-29T13:37:27;5.03;;;0.80;;
50988;SDS011;37008;52.210;21.112;2022-07-29T13:39:54;4.47;;;0.90;;
50988;SDS011;37008;52.210;21.112;2022-07-29T13:42:24;4.07;;;1.00;;
50988;SDS011;37008;52.210;21.112;2022-07-29T13:44:50;7.00;;;1.20;;
50988;SDS011;37008;52.210;21.112;2022-07-29T13:47:17;2.47;;;0.68;;
50988;SDS011;37008;52.210;21.112;2022-07-29T13:49:43;3.50;;;0.82;;
50988;SDS011;37008;52.210;21.112;2022-07-29T13:52:09;2.60;;;0.80;;
50988;SDS011;37008;52.210;21.112;2022-07-29T13:54:35;3.60;;;0.98;;
50988;SDS011;37008;52.210;21.112;2022-07-29T13:57:02;2.95;;;0.77;;
50988;SDS011;37008;52.210;21.112;2022-07-29T13:59:28;6.10;;;0.90;;
50988;SDS011;37008;52.210;21.112;2022-07-29T14:01:54;3.85;;;0.80;;
50988;SDS011;37008;52.210;21.112;2022-07-29T14:04:20;5.13;;;1.10;;
50988;SDS011;37008;52.210;21.112;2022-07-29T14:06:46;4.53;;;0.95;;
50988;SDS011;37008;52.210;21.112;2022-07-29T14:09:12;3.67;;;1.00;;
50988;SDS011;37008;52.210;21.112;2022-07-29T14:11:38;2.97;;;0.85;;
50988;SDS011;37008;52.210;21.112;2022-07-29T14:14:03;1.45;;;0.70;;
50988;SDS011;37008;52.210;21.112;2022-07-29T14:16:29;5.88;;;0.80;;
50988;SDS011;37008;52.210;21.112;2022-07-29T14:18:55;1.88;;;0.80;;
50988;SDS011;37008;52.210;21.112;2022-07-29T14:21:21;10.38;;;1.58;;
50988;SDS011;37008;52.210;21.112;2022-07-29T14:23:46;4.00;;;0.93;;
50988;SDS011;37008;52.210;21.112;2022-07-29T14:26:12;1.55;;;0.70;;
50988;SDS011;37008;52.210;21.112;2022-07-29T14:28:38;4.07;;;0.90;;
50988;SDS011;37008;52.210;21.112;2022-07-29T14:31:03;4.10;;;0.93;;
50988;SDS011;37008;52.210;21.112;2022-07-29T14:33:29;3.60;;;1.10;;
50988;SDS011;37008;52.210;21.112;2022-07-29T14:35:55;4.00;;;0.90;;
50988;SDS011;37008;52.210;21.112;2022-07-29T14:38:20;6.82;;;0.90;;
50988;SDS011;37008;52.210;21.112;2022-07-29T14:40:46;6.03;;;0.90;;
50988;SDS011;37008;52.210;21.112;2022-07-29T14:43:12;2.10;;;0.90;;
50988;SDS011;37008;52.210;21.112;2022-07-29T14:45:38;3.35;;;0.80;;
50988;SDS011;37008;52.210;21.112;2022-07-29T14:48:04;4.22;;;0.80;;
50988;SDS011;37008;52.210;21.112;2022-07-29T14:50:30;4.72;;;0.82;;
50988;SDS011;37008;52.210;21.112;2022-07-29T14:52:56;6.15;;;1.00;;
50988;SDS011;37008;52.210;21.112;2022-07-29T14:55:21;4.20;;;0.98;;
50988;SDS011;37008;52.210;21.112;2022-07-29T14:57:47;5.63;;;1.08;;
50988;SDS011;37008;52.210;21.112;2022-07-29T15:00:13;7.40;;;1.38;;
50988;SDS011;37008;52.210;21.112;2022-07-29T15:02:39;2.28;;;0.90;;
50988;SDS011;37008;52.210;21.112;2022-07-29T15:05:05;5.43;;;1.10;;
50988;SDS011;37008;52.210;21.112;2022-07-29T15:07:30;1.58;;;0.70;;
50988;SDS011;37008;52.210;21.112;2022-07-29T15:09:56;2.35;;;0.93;;
50988;SDS011;37008;52.210;21.112;2022-07-29T15:12:21;7.78;;;1.10;;
50988;SDS011;37008;52.210;21.112;2022-07-29T15:14:47;2.03;;;0.90;;
50988;SDS011;37008;52.210;21.112;2022-07-29T15:17:13;6.15;;;0.80;;
50988;SDS011;37008;52.210;21.112;2022-07-29T15:19:38;4.78;;;0.80;;
50988;SDS011;37008;52.210;21.112;2022-07-29T15:22:04;4.35;;;0.90;;
50988;SDS011;37008;52.210;21.112;2022-07-29T15:24:30;2.92;;;1.05;;
50988;SDS011;37008;52.210;21.112;2022-07-29T15:26:56;5.22;;;0.90;;
50988;SDS011;37008;52.210;21.112;2022-07-29T15:29:22;2.53;;;0.98;;
50988;SDS011;37008;52.210;21.112;2022-07-29T15:31:47;6.63;;;0.98;;
50988;SDS011;37008;52.210;21.112;2022-07-29T15:34:13;2.47;;;0.80;;
50988;SDS011;37008;52.210;21.112;2022-07-29T15:36:39;2.72;;;0.80;;